createdAt,value
2022-10-23T00:03:53.523Z,7.5
2022-10-23T00:08:53.535Z,9.7
2022-10-23T00:13:53.531Z,8.9
2022-10-23T00:18:53.528Z,11.3
2022-10-23T00:23:53.541Z,10.1
2022-10-23T00:28:53.535Z,12.0
2022-10-23T00:33:53.531Z,9.8
2022-10-23T00:38:53.558Z,11.2
2022-10-23T00:43:53.542Z,9.5
2022-10-23T00:48:53.550Z,10.7
2022-10-23T00:54:01.354Z,11.3
2022-10-23T00:58:53.566Z,12.9
2022-10-23T01:03:53.558Z,10.0
2022-10-23T01:08:53.552Z,8.7
2022-10-23T01:13:53.649Z,10.3
2022-10-23T01:18:53.558Z,9.2
2022-10-23T01:23:53.556Z,11.5
2022-10-23T01:28:53.568Z,10.5
2022-10-23T01:33:53.567Z,9.6
2022-10-23T01:38:53.627Z,10.9
2022-10-23T01:43:53.571Z,7.5
2022-10-23T01:48:53.577Z,7.5
2022-10-23T01:53:53.586Z,10.3
2022-10-23T01:58:53.578Z,8.9
2022-10-23T02:03:53.620Z,9.8
2022-10-23T02:08:53.593Z,10.4
2022-10-23T02:13:53.592Z,8.0
2022-10-23T02:18:53.598Z,10.4
2022-10-23T02:23:56.039Z,8.5
2022-10-23T02:28:53.667Z,11.2
2022-10-23T02:33:53.606Z,10.8
2022-10-23T02:38:53.602Z,11.0
2022-10-23T02:43:53.633Z,8.0
2022-10-23T02:48:53.603Z,9.9
2022-10-23T02:53:53.636Z,10.7
2022-10-23T02:58:53.614Z,8.7
2022-10-23T03:03:53.610Z,9.2
2022-10-23T03:08:53.614Z,8.1
2022-10-23T03:13:53.624Z,6.6
2022-10-23T03:18:53.623Z,7.7
2022-10-23T03:23:53.629Z,8.8
2022-10-23T03:28:53.635Z,8.2
2022-10-23T03:33:53.634Z,10.7
2022-10-23T03:38:53.650Z,7.0
2022-10-23T03:43:53.659Z,14.1
2022-10-23T03:48:53.637Z,10.9
2022-10-23T03:53:53.638Z,8.7
2022-10-23T03:58:53.641Z,8.0
2022-10-23T04:03:53.653Z,9.1
2022-10-23T04:08:53.656Z,10.9
2022-10-23T04:13:53.653Z,8.6
2022-10-23T04:18:53.657Z,8.5
2022-10-23T04:23:53.671Z,10.1
2022-10-23T04:28:53.663Z,12.2
2022-10-23T04:33:53.739Z,8.9
2022-10-23T04:38:53.673Z,8.5
2022-10-23T04:43:53.673Z,8.7
2022-10-23T04:48:53.682Z,7.3
2022-10-23T04:53:53.686Z,6.4
2022-10-23T04:58:53.713Z,9.3
2022-10-23T05:03:53.681Z,8.5
2022-10-23T05:08:53.689Z,9.3
2022-10-23T05:13:53.699Z,10.6
2022-10-23T05:18:53.703Z,9.4
2022-10-23T05:23:53.772Z,8.6
2022-10-23T05:28:53.708Z,7.9
2022-10-23T05:33:53.702Z,8.4
2022-10-23T05:38:53.717Z,9.1
2022-10-23T05:43:53.712Z,7.7
2022-10-23T05:48:53.762Z,8.7
2022-10-23T05:53:53.717Z,12.0
2022-10-23T05:58:53.722Z,8.3
2022-10-23T06:03:53.725Z,8.4
2022-10-23T06:08:53.748Z,12.2
2022-10-23T06:13:53.791Z,9.5
2022-10-23T06:18:53.732Z,8.4
2022-10-23T06:23:53.734Z,7.0
2022-10-23T06:28:53.739Z,8.4
2022-10-23T06:33:53.743Z,10.1
2022-10-23T06:38:53.829Z,7.1
2022-10-23T06:43:53.748Z,9.3
2022-10-23T06:48:53.746Z,6.8
2022-10-23T06:53:53.754Z,5.3
2022-10-23T06:58:53.762Z,6.7
2022-10-23T07:03:53.765Z,6.8
2022-10-23T07:08:53.762Z,8.5
2022-10-23T07:13:53.766Z,7.0
2022-10-23T07:18:53.765Z,9.6
2022-10-23T07:23:53.773Z,7.9
2022-10-23T07:28:53.778Z,7.9
2022-10-23T07:33:53.774Z,5.9
2022-10-23T07:38:53.782Z,9.5
2022-10-23T07:43:53.785Z,7.4
2022-10-23T07:48:53.784Z,8.9
2022-10-23T07:53:53.797Z,4.8
2022-10-23T07:58:53.805Z,6.4
2022-10-23T08:03:53.799Z,7.2
2022-10-23T08:08:53.802Z,7.5
2022-10-23T08:13:53.807Z,6.3
2022-10-23T08:18:53.809Z,5.9
2022-10-23T08:23:53.839Z,5.8
2022-10-23T08:28:53.815Z,6.5
2022-10-23T08:33:53.814Z,4.7
2022-10-23T08:38:53.815Z,5.8
2022-10-23T08:43:53.818Z,5.6
2022-10-23T08:48:53.827Z,5.6
2022-10-23T08:53:53.839Z,5.5
2022-10-23T08:58:53.865Z,3.9
2022-10-23T09:03:53.838Z,6.0
2022-10-23T09:08:53.844Z,5.7
2022-10-23T09:13:53.851Z,4.1
2022-10-23T09:18:53.851Z,4.4
2022-10-23T09:23:53.848Z,4.4
2022-10-23T09:28:53.853Z,5.8
2022-10-23T09:33:53.872Z,4.6
2022-10-23T09:38:53.866Z,6.9
2022-10-23T09:43:53.870Z,5.5
2022-10-23T09:48:53.873Z,7.1
2022-10-23T09:53:53.881Z,7.2
2022-10-23T09:58:53.868Z,6.1
2022-10-23T10:03:53.893Z,4.2
2022-10-23T10:08:53.881Z,6.7
2022-10-23T10:13:53.887Z,4.8
2022-10-23T10:18:53.888Z,6.5
2022-10-23T10:23:53.891Z,4.8
2022-10-23T10:28:53.894Z,4.4
2022-10-23T10:33:53.916Z,5.1
2022-10-23T10:38:53.966Z,5.8
2022-10-23T10:43:53.904Z,4.8
2022-10-23T10:48:53.907Z,4.8
2022-10-23T10:53:53.906Z,3.2
2022-10-23T10:58:53.943Z,4.3
2022-10-23T11:03:53.916Z,5.1
2022-10-23T11:13:53.941Z,4.3
2022-10-23T11:18:53.927Z,4.2
2022-10-23T11:23:53.939Z,5.1
2022-10-23T11:28:53.943Z,3.9
2022-10-23T11:33:53.943Z,5.1
2022-10-23T11:38:53.943Z,3.8
2022-10-23T11:43:53.954Z,4.8
2022-10-23T11:48:53.946Z,6.3
2022-10-23T11:53:53.952Z,3.4
2022-10-23T11:58:53.958Z,3.6
2022-10-23T12:03:53.972Z,7.0
2022-10-23T12:08:53.969Z,4.5
2022-10-23T12:13:53.977Z,3.1
2022-10-23T12:18:53.977Z,3.0
2022-10-23T12:23:53.981Z,4.3
2022-10-23T12:28:53.977Z,3.6
2022-10-23T12:33:53.992Z,5.9
2022-10-23T12:38:53.984Z,5.0
2022-10-23T12:43:53.994Z,5.2
2022-10-23T12:48:54.007Z,4.5
2022-10-23T12:53:54.008Z,5.1
2022-10-23T12:58:54.018Z,4.0
2022-10-23T13:03:54.009Z,5.2
2022-10-23T13:08:54.008Z,3.9
2022-10-23T13:13:54.026Z,7.0
2022-10-23T13:18:54.018Z,4.5
2022-10-23T13:23:54.024Z,5.1
2022-10-23T13:28:54.029Z,4.7
2022-10-23T13:33:54.028Z,4.8
2022-10-23T13:38:54.034Z,3.3
2022-10-23T13:43:54.025Z,4.8
2022-10-23T13:48:54.043Z,5.1
2022-10-23T13:53:54.040Z,4.4
2022-10-23T13:58:54.038Z,5.0
2022-10-23T14:03:54.049Z,5.2
2022-10-23T14:08:54.051Z,3.1
2022-10-23T14:13:54.052Z,2.8
2022-10-23T14:18:54.053Z,3.9
2022-10-23T14:23:54.057Z,4.4
2022-10-23T14:28:54.054Z,2.9
2022-10-23T14:33:54.060Z,3.4
2022-10-23T14:38:55.724Z,4.5
2022-10-23T14:43:54.079Z,3.7
2022-10-23T14:48:57.510Z,2.9
2022-10-23T14:53:56.454Z,3.2
2022-10-23T14:58:54.071Z,3.0
2022-10-23T15:03:54.074Z,5.5
2022-10-23T15:08:54.095Z,3.6
2022-10-23T15:13:54.082Z,3.5
2022-10-23T15:18:54.087Z,8.5
2022-10-23T15:23:54.094Z,2.8
2022-10-23T15:28:54.091Z,3.1
2022-10-23T15:33:54.098Z,6.0
2022-10-23T15:38:54.096Z,5.0
2022-10-23T15:43:54.116Z,5.2
2022-10-23T15:48:54.122Z,6.3
2022-10-23T15:53:54.107Z,5.2
2022-10-23T15:58:54.111Z,5.6
2022-10-23T16:03:54.120Z,5.5
2022-10-23T16:13:54.119Z,7.1
2022-10-23T16:18:54.121Z,5.6
2022-10-23T16:23:54.127Z,3.4
2022-10-23T16:28:54.131Z,4.7
2022-10-23T16:33:54.157Z,4.8
2022-10-23T16:38:54.127Z,4.3
2022-10-23T16:43:54.135Z,3.8
2022-10-23T16:48:54.134Z,7.1
2022-10-23T16:53:54.163Z,4.3
2022-10-23T16:58:54.187Z,4.7
2022-10-23T17:03:54.164Z,5.1
2022-10-23T17:08:54.154Z,4.1
2022-10-23T17:13:58.502Z,4.0
2022-10-23T17:18:54.152Z,6.5
2022-10-23T17:23:54.200Z,4.7
2022-10-23T17:28:54.156Z,6.1
2022-10-23T17:33:54.164Z,4.6
2022-10-23T17:38:54.163Z,6.4
2022-10-23T17:43:54.163Z,3.5
2022-10-23T17:48:54.222Z,5.2
2022-10-23T17:53:54.166Z,5.3
2022-10-23T17:58:54.180Z,6.0
2022-10-23T18:03:54.176Z,4.7
2022-10-23T18:08:54.176Z,5.6
2022-10-23T18:13:54.271Z,5.5
2022-10-23T18:18:54.189Z,5.3
2022-10-23T18:23:54.187Z,4.2
2022-10-23T18:28:54.187Z,4.5
2022-10-23T18:33:54.191Z,6.3
2022-10-23T18:43:54.206Z,7.6
2022-10-23T18:48:54.197Z,7.9
2022-10-23T18:53:54.206Z,11.2
2022-10-23T18:58:54.201Z,6.3
2022-10-23T19:03:54.207Z,6.5
2022-10-23T19:08:54.213Z,6.6
2022-10-23T19:13:54.215Z,3.7
2022-10-23T19:18:54.215Z,5.1
2022-10-23T19:23:54.245Z,13.3
2022-10-23T19:28:54.241Z,8.0
2022-10-23T19:33:54.408Z,7.5
2022-10-23T19:38:54.236Z,5.0
2022-10-23T19:43:54.237Z,4.7
2022-10-23T19:48:54.255Z,4.6
2022-10-23T19:53:54.252Z,3.0
2022-10-23T19:58:54.250Z,3.5
2022-10-23T20:03:54.256Z,2.3
2022-10-23T20:08:54.259Z,7.1
2022-10-23T20:13:54.253Z,3.2
2022-10-23T20:18:54.258Z,6.0
2022-10-23T20:23:54.274Z,3.8
2022-10-23T20:28:54.256Z,2.0
2022-10-23T20:33:54.272Z,3.3
2022-10-23T20:38:54.265Z,1.8
2022-10-23T20:43:54.287Z,4.0
2022-10-23T20:48:54.280Z,5.0
2022-10-23T20:53:54.267Z,3.6
2022-10-23T20:58:54.266Z,2.2
2022-10-23T21:03:54.278Z,3.2
2022-10-23T21:08:54.269Z,8.6
2022-10-23T21:13:54.280Z,5.3
2022-10-23T21:18:54.279Z,5.1
2022-10-23T21:23:54.283Z,4.0
2022-10-23T21:29:06.853Z,3.2
2022-10-23T21:33:54.291Z,2.6
2022-10-23T21:38:54.289Z,3.9
2022-10-23T21:43:54.296Z,4.0
2022-10-23T21:53:54.295Z,4.9
2022-10-23T21:58:54.347Z,6.4
2022-10-23T22:03:54.308Z,3.4
2022-10-23T22:08:54.312Z,14.5
2022-10-23T22:13:54.304Z,15.6
2022-10-23T22:18:54.309Z,17.1
2022-10-23T22:23:54.398Z,8.8
2022-10-23T22:28:54.330Z,20.5
2022-10-23T22:33:54.326Z,24.0
2022-10-23T22:38:54.327Z,17.0
2022-10-23T22:43:54.326Z,16.5
2022-10-23T22:48:54.422Z,20.7
2022-10-23T22:53:54.325Z,19.6
2022-10-23T22:58:54.333Z,12.7
2022-10-23T23:03:54.334Z,6.4
2022-10-23T23:08:54.342Z,4.4
2022-10-23T23:13:54.417Z,5.0
2022-10-23T23:18:54.344Z,7.0
2022-10-23T23:23:54.344Z,6.4
2022-10-23T23:28:54.355Z,5.2
2022-10-23T23:33:54.352Z,7.3
2022-10-23T23:38:54.380Z,9.3
2022-10-23T23:43:54.383Z,6.0
2022-10-23T23:48:54.354Z,5.0
2022-10-23T23:53:54.379Z,7.6
2022-10-23T23:58:54.366Z,5.9
